METAR Data
IDs: Format: Raw Decoded Include TAF

Data at: 1737 UTC 03 Jul 2020

METAR for:KGEZ (Shelbyville Muni, IN, US)
Text:KGEZ 031653Z AUTO 03006KT 10SM CLR 33/17 A3004 RMK AO2 SLP163 T03280172
Temperature: 32.8°C ( 91°F)
Dewpoint: 17.2°C ( 63°F) [RH = 39%]
Pressure (altimeter):30.04 inches Hg (1017.4 mb) [Sea level pressure: 1016.3 mb]
Winds:from the NNE (30 degrees) at 7 MPH (6 knots; 3.1 m/s)
Visibility:10 or more sm (16+ km)
Ceiling:at least 12,000 feet AGL
Clouds:sky clear below 12,000 feet AGL
QC Flag:automated observation with no human augmentation